createdAt,value
2023-01-19T00:02:35.599Z,42.40
2023-01-19T00:07:38.224Z,41.50
2023-01-19T00:12:40.938Z,41.90
2023-01-19T00:17:43.559Z,46.10
2023-01-19T00:22:50.714Z,47.10
2023-01-19T00:27:53.345Z,41.10
2023-01-19T00:32:56.261Z,43.50
2023-01-19T00:37:59.515Z,46.90
2023-01-19T00:43:03.236Z,43.60
2023-01-19T00:48:06.432Z,42.40
2023-01-19T00:53:09.147Z,44.20
2023-01-19T00:58:11.769Z,39.90
2023-01-19T01:03:14.757Z,37.40
2023-01-19T01:08:17.405Z,45.40
2023-01-19T01:13:23.591Z,28.90
2023-01-19T01:18:28.225Z,47.90
2023-01-19T01:23:30.897Z,41.60
2023-01-19T01:28:33.516Z,36.90
2023-01-19T01:33:39.820Z,42.00
2023-01-19T01:38:44.036Z,39.30
2023-01-19T01:43:54.780Z,40.10
2023-01-19T01:49:00.353Z,41.90
2023-01-19T01:54:06.999Z,36.50
2023-01-19T01:59:26.140Z,22.20
2023-01-19T02:04:30.060Z,38.00
2023-01-19T02:09:39.621Z,39.60
2023-01-19T02:14:42.265Z,38.30
2023-01-19T02:19:46.431Z,39.30
2023-01-19T02:24:50.068Z,41.70
2023-01-19T02:29:53.207Z,38.50
2023-01-19T02:34:58.599Z,39.30
2023-01-19T02:40:04.163Z,40.10
2023-01-19T02:45:09.416Z,37.60
2023-01-19T02:50:17.838Z,36.20
2023-01-19T02:55:28.349Z,39.80
2023-01-19T03:00:56.059Z,43.50
2023-01-19T03:06:05.959Z,38.30
2023-01-19T03:11:12.685Z,41.90
2023-01-19T03:16:21.852Z,39.20
2023-01-19T03:21:28.681Z,39.90
2023-01-19T03:26:37.432Z,42.10
2023-01-19T03:31:45.775Z,40.00
2023-01-19T03:36:53.969Z,36.10
2023-01-19T03:42:04.928Z,39.70
2023-01-19T03:47:10.152Z,38.70
2023-01-19T03:52:12.924Z,40.50
2023-01-19T03:57:15.600Z,36.60
2023-01-19T04:02:18.247Z,33.60
2023-01-19T04:07:20.964Z,36.50
2023-01-19T04:12:23.729Z,41.90
2023-01-19T04:17:26.459Z,36.80
2023-01-19T04:22:30.374Z,50.80
2023-01-19T04:27:32.996Z,65.40
2023-01-19T04:32:37.721Z,62.80
2023-01-19T04:37:40.398Z,59.00
2023-01-19T04:42:44.938Z,50.20
2023-01-19T04:47:47.541Z,57.80
2023-01-19T04:52:50.219Z,52.30
2023-01-19T04:57:54.181Z,53.80
2023-01-19T05:02:56.880Z,47.50
2023-01-19T05:07:59.518Z,43.00
2023-01-19T05:13:02.627Z,48.90
2023-01-19T05:18:05.511Z,46.30
2023-01-19T05:23:08.144Z,39.90
2023-01-19T05:28:11.674Z,36.00
2023-01-19T05:33:16.835Z,33.10
2023-01-19T05:38:29.348Z,34.20
2023-01-19T05:43:36.636Z,37.20
2023-01-19T05:48:42.791Z,38.20
2023-01-19T05:53:45.434Z,43.10
2023-01-19T05:58:48.331Z,61.50
2023-01-19T06:03:51.003Z,41.40
2023-01-19T06:08:54.444Z,40.30
2023-01-19T06:13:57.101Z,51.00
2023-01-19T06:18:59.745Z,50.10
2023-01-19T06:24:03.553Z,48.20
2023-01-19T06:29:06.380Z,38.90
2023-01-19T06:34:10.041Z,41.30
2023-01-19T06:39:13.215Z,43.60
2023-01-19T06:44:15.895Z,38.40
2023-01-19T06:49:18.558Z,37.70
2023-01-19T06:54:21.880Z,37.20
2023-01-19T06:59:25.486Z,40.00
2023-01-19T07:04:28.092Z,36.70
2023-01-19T07:09:30.675Z,36.10
2023-01-19T07:14:33.975Z,35.90
2023-01-19T07:19:36.755Z,42.10
2023-01-19T07:24:39.362Z,42.50
2023-01-19T07:29:42.516Z,40.10
2023-01-19T07:34:45.399Z,37.00
2023-01-19T07:39:48.153Z,32.00
2023-01-19T07:44:50.727Z,33.30
2023-01-19T07:49:53.327Z,41.60
2023-01-19T07:54:55.920Z,31.60
2023-01-19T07:59:58.528Z,34.70
2023-01-19T08:05:01.224Z,39.30
2023-01-19T08:10:04.044Z,40.40
2023-01-19T08:15:07.345Z,37.50
2023-01-19T08:20:11.193Z,41.70
2023-01-19T08:25:13.813Z,41.10
2023-01-19T08:30:16.910Z,38.20
2023-01-19T08:35:19.493Z,48.00
2023-01-19T08:40:22.239Z,50.10
2023-01-19T08:45:24.906Z,49.90
2023-01-19T08:50:30.937Z,55.10
2023-01-19T08:55:36.220Z,45.50
2023-01-19T09:00:40.098Z,55.60
2023-01-19T09:05:42.837Z,55.00
2023-01-19T09:10:50.699Z,47.10
2023-01-19T09:15:53.482Z,57.70
2023-01-19T09:20:57.653Z,49.40
2023-01-19T09:26:03.024Z,49.40
2023-01-19T09:31:07.592Z,58.30
2023-01-19T09:36:10.686Z,56.00
2023-01-19T09:41:20.982Z,59.60
2023-01-19T09:46:38.876Z,64.30
2023-01-19T09:51:46.673Z,58.20
2023-01-19T09:56:52.448Z,55.50
2023-01-19T10:07:09.640Z,60.80
2023-01-19T10:12:35.217Z,51.50
2023-01-19T10:17:47.090Z,51.00
2023-01-19T10:22:50.636Z,51.80
2023-01-19T10:27:53.391Z,48.00
2023-01-19T10:32:56.096Z,48.30
2023-01-19T10:38:02.106Z,38.70
2023-01-19T10:43:10.850Z,39.20
2023-01-19T10:48:13.842Z,40.90
2023-01-19T10:53:22.223Z,39.60
2023-01-19T10:58:29.950Z,39.50
2023-01-19T11:03:32.599Z,34.70
2023-01-19T11:08:35.203Z,30.90
2023-01-19T11:13:43.859Z,34.20
2023-01-19T11:18:52.610Z,30.30
2023-01-19T11:23:57.855Z,29.70
2023-01-19T11:29:03.235Z,40.80
2023-01-19T11:34:21.764Z,40.70
2023-01-19T11:39:28.115Z,41.90
2023-01-19T11:44:36.289Z,38.40
2023-01-19T11:49:42.832Z,34.10
2023-01-19T11:55:01.496Z,34.30
2023-01-19T12:00:24.960Z,37.30
2023-01-19T12:05:36.056Z,36.20
2023-01-19T12:10:43.900Z,33.00
2023-01-19T12:15:48.414Z,36.60
2023-01-19T12:20:54.051Z,34.00
2023-01-19T12:26:02.493Z,33.30
2023-01-19T12:31:05.724Z,37.90
2023-01-19T12:36:14.182Z,36.40
2023-01-19T12:41:18.750Z,37.40
2023-01-19T12:46:24.239Z,37.60
2023-01-19T12:51:27.086Z,37.60
2023-01-19T12:56:33.971Z,44.20
2023-01-19T13:01:36.756Z,39.10
2023-01-19T13:06:45.227Z,38.70
2023-01-19T13:12:21.587Z,37.70
2023-01-19T13:17:31.912Z,37.90
2023-01-19T13:22:40.321Z,30.80
2023-01-19T13:27:43.129Z,35.30
2023-01-19T13:32:46.861Z,35.60
2023-01-19T13:37:50.688Z,40.40
2023-01-19T13:42:54.031Z,38.70
2023-01-19T13:47:59.848Z,32.20
2023-01-19T13:53:04.508Z,29.70
2023-01-19T13:58:23.240Z,30.40
2023-01-19T14:03:26.661Z,33.00
2023-01-19T14:08:31.169Z,36.10
2023-01-19T14:13:40.047Z,40.50
2023-01-19T14:18:45.179Z,27.40
2023-01-19T14:23:49.278Z,40.30
2023-01-19T14:28:51.939Z,38.00
2023-01-19T14:33:56.068Z,45.00
2023-01-19T14:39:00.986Z,44.10
2023-01-19T14:44:09.008Z,49.10
2023-01-19T14:49:21.672Z,43.10
2023-01-19T14:54:31.609Z,38.10
2023-01-19T14:59:34.296Z,39.20
2023-01-19T15:04:36.902Z,39.30
2023-01-19T15:09:39.823Z,38.80
2023-01-19T15:14:42.791Z,37.50
2023-01-19T15:19:45.414Z,35.30
2023-01-19T15:24:49.557Z,44.60
2023-01-19T15:29:52.232Z,40.90
2023-01-19T15:34:54.875Z,42.00
2023-01-19T15:39:57.705Z,46.80
2023-01-19T15:45:00.430Z,42.00
2023-01-19T15:50:03.058Z,42.00
2023-01-19T15:55:06.292Z,40.80
2023-01-19T16:00:09.820Z,38.90
2023-01-19T16:05:13.137Z,38.20
2023-01-19T16:10:16.932Z,37.60
2023-01-19T16:15:19.547Z,36.60
2023-01-19T16:20:22.184Z,39.40
2023-01-19T16:25:24.853Z,43.40
2023-01-19T16:30:27.493Z,46.30
2023-01-19T16:35:30.098Z,53.00
2023-01-19T16:40:32.726Z,54.30
2023-01-19T16:45:37.796Z,57.10
2023-01-19T16:50:40.414Z,52.40
2023-01-19T16:55:43.037Z,47.40
2023-01-19T17:00:45.790Z,44.60
2023-01-19T17:05:51.605Z,40.50
2023-01-19T17:11:27.006Z,45.40
2023-01-19T17:17:05.715Z,43.90
2023-01-19T17:22:12.858Z,37.60
2023-01-19T17:27:17.100Z,37.20
2023-01-19T17:32:19.691Z,39.90
2023-01-19T17:37:22.342Z,43.70
2023-01-19T17:42:24.990Z,46.50
2023-01-19T17:47:27.642Z,39.40
2023-01-19T17:52:30.281Z,37.10
2023-01-19T17:57:33.130Z,49.30
2023-01-19T18:02:36.025Z,47.40
2023-01-19T18:07:39.975Z,43.20
2023-01-19T18:12:42.641Z,39.40
2023-01-19T18:17:45.296Z,33.20
2023-01-19T18:22:47.989Z,39.80
2023-01-19T18:27:50.563Z,44.50
2023-01-19T18:32:53.170Z,44.80
2023-01-19T18:37:57.016Z,40.40
2023-01-19T18:42:59.609Z,42.60
2023-01-19T18:48:02.575Z,39.90
2023-01-19T18:53:05.242Z,41.50
2023-01-19T18:58:08.679Z,42.90
2023-01-19T19:03:11.341Z,44.80
2023-01-19T19:08:13.985Z,38.90
2023-01-19T19:13:17.608Z,37.30
2023-01-19T19:18:22.574Z,42.70
2023-01-19T19:23:25.315Z,43.70
2023-01-19T19:28:27.908Z,36.30
2023-01-19T19:33:30.699Z,39.90
2023-01-19T19:38:36.553Z,45.90
2023-01-19T19:43:41.897Z,45.90
2023-01-19T19:48:47.602Z,50.60
2023-01-19T19:53:51.852Z,37.20
2023-01-19T19:58:56.560Z,40.80
2023-01-19T20:04:06.626Z,35.90
2023-01-19T20:09:12.549Z,39.70
2023-01-19T20:14:16.146Z,35.70
2023-01-19T20:19:18.885Z,27.20
2023-01-19T20:24:21.575Z,69.50
2023-01-19T20:29:24.304Z,69.20
2023-01-19T20:34:32.958Z,45.10
2023-01-19T20:39:37.086Z,43.10
2023-01-19T20:44:39.970Z,39.00
2023-01-19T20:49:42.704Z,46.80
2023-01-19T20:54:45.395Z,36.90
2023-01-19T20:59:48.033Z,31.80
2023-01-19T21:04:53.116Z,39.40
2023-01-19T21:09:55.791Z,35.30
2023-01-19T21:15:00.911Z,34.00
2023-01-19T21:20:04.003Z,25.60
2023-01-19T21:25:07.561Z,27.20
2023-01-19T21:30:10.873Z,32.60
2023-01-19T21:35:13.993Z,28.60
2023-01-19T21:40:19.202Z,32.00
2023-01-19T21:45:22.266Z,32.10
2023-01-19T21:50:24.996Z,30.20
2023-01-19T21:55:28.080Z,31.00
2023-01-19T22:00:30.815Z,33.00
2023-01-19T22:05:36.740Z,33.50
2023-01-19T22:10:39.586Z,30.80
2023-01-19T22:15:42.191Z,29.90
2023-01-19T22:20:44.804Z,39.70
2023-01-19T22:25:47.548Z,46.50
2023-01-19T22:30:50.231Z,44.00
2023-01-19T22:35:52.850Z,39.50
2023-01-19T22:40:55.435Z,33.40
2023-01-19T22:45:58.957Z,35.70
2023-01-19T22:51:04.065Z,16.70
2023-01-19T22:56:13.028Z,34.70
2023-01-19T23:01:37.734Z,40.90
2023-01-19T23:06:40.490Z,39.20
2023-01-19T23:11:48.328Z,36.20
2023-01-19T23:16:51.283Z,44.90
2023-01-19T23:21:53.929Z,36.70
2023-01-19T23:26:56.542Z,42.80
2023-01-19T23:31:59.331Z,44.40
2023-01-19T23:37:01.955Z,43.50
2023-01-19T23:42:05.125Z,34.10
2023-01-19T23:47:07.705Z,38.60
2023-01-19T23:52:10.342Z,45.90
2023-01-19T23:57:12.959Z,56.90
